createdAt,value
2022-07-26T00:01:36.865Z,101333.19
2022-07-26T00:06:58.873Z,101341.84
2022-07-26T00:12:20.593Z,101344.66
2022-07-26T00:17:42.336Z,101348.56
2022-07-26T00:23:04.230Z,101350.50
2022-07-26T00:28:26.010Z,101349.94
2022-07-26T00:33:47.771Z,101356.38
2022-07-26T00:39:09.822Z,101357.47
2022-07-26T00:44:39.225Z,101359.16
2022-07-26T00:50:01.076Z,101349.63
2022-07-26T00:55:22.990Z,101353.00
2022-07-26T01:00:45.294Z,101349.38
2022-07-26T01:06:07.184Z,101347.94
2022-07-26T01:11:28.977Z,101346.84
2022-07-26T01:16:51.614Z,101343.78
2022-07-26T01:22:14.808Z,101342.38
2022-07-26T01:27:39.745Z,101337.06
2022-07-26T01:33:01.505Z,101336.22
2022-07-26T01:38:28.309Z,101336.22
2022-07-26T01:43:49.998Z,101339.03
2022-07-26T01:49:11.778Z,101335.38
2022-07-26T01:54:33.552Z,101334.81
2022-07-26T01:59:55.792Z,101348.78
2022-07-26T02:05:17.524Z,101348.78
2022-07-26T02:10:58.067Z,101349.63
2022-07-26T02:16:20.528Z,101355.47
2022-07-26T02:21:42.315Z,101341.50
2022-07-26T02:27:05.292Z,101341.50
2022-07-26T02:32:26.978Z,101352.69
2022-07-26T02:37:48.684Z,101358.56
2022-07-26T02:43:10.823Z,101362.47
2022-07-26T02:48:32.696Z,101366.09
2022-07-26T02:53:54.552Z,101370.00
2022-07-26T02:59:16.275Z,101368.31
2022-07-26T03:04:37.946Z,101364.69
2022-07-26T03:09:59.859Z,101376.97
2022-07-26T03:15:21.707Z,101375.28
2022-07-26T03:20:43.425Z,101378.06
2022-07-26T03:26:05.329Z,101384.81
2022-07-26T03:31:27.140Z,101376.41
2022-07-26T03:36:48.886Z,101380.03
2022-07-26T03:42:10.640Z,101387.59
2022-07-26T03:47:32.334Z,101388.72
2022-07-26T03:52:54.107Z,101402.69
2022-07-26T03:58:17.134Z,101401.00
2022-07-26T04:03:40.025Z,101406.84
2022-07-26T04:09:06.835Z,101404.03
2022-07-26T04:14:29.731Z,101407.69
2022-07-26T04:19:51.505Z,101411.31
2022-07-26T04:25:13.552Z,101418.88
2022-07-26T04:30:35.374Z,101420.81
2022-07-26T04:35:57.208Z,101433.94
2022-07-26T04:41:18.973Z,101427.50
2022-07-26T04:46:44.860Z,101432.25
2022-07-26T04:52:06.914Z,101432.53
2022-07-26T04:57:28.740Z,101434.22
2022-07-26T05:02:55.703Z,101437.03
2022-07-26T05:08:17.589Z,101438.38
2022-07-26T05:13:39.324Z,101436.44
2022-07-26T05:19:01.022Z,101445.94
2022-07-26T05:24:22.773Z,101449.56
2022-07-26T05:29:44.511Z,101459.63
2022-07-26T05:35:07.686Z,101461.59
2022-07-26T05:40:29.525Z,101454.31
2022-07-26T05:45:51.510Z,101460.72
2022-07-26T05:51:13.321Z,101459.91
2022-07-26T05:56:35.066Z,101456.81
2022-07-26T06:01:56.926Z,101469.09
2022-07-26T06:07:18.761Z,101478.34
2022-07-26T06:12:40.672Z,101475.00
2022-07-26T06:18:02.627Z,101479.81
2022-07-26T06:23:31.911Z,101480.41
2022-07-26T06:28:56.820Z,101489.13
2022-07-26T06:34:18.763Z,101495.06
2022-07-26T06:39:40.478Z,101502.34
2022-07-26T06:45:04.176Z,101515.00
2022-07-26T06:50:25.982Z,101517.56
2022-07-26T06:55:47.750Z,101517.56
2022-07-26T07:01:09.978Z,101521.50
2022-07-26T07:06:31.850Z,101521.50
2022-07-26T07:11:57.360Z,101523.72
2022-07-26T07:17:22.069Z,101532.69
2022-07-26T07:22:46.775Z,101534.91
2022-07-26T07:28:08.578Z,101539.06
2022-07-26T07:33:32.174Z,101544.13
2022-07-26T07:39:07.075Z,101546.34
2022-07-26T07:44:30.763Z,101539.06
2022-07-26T07:49:53.225Z,101540.44
2022-07-26T07:55:40.313Z,101546.25
2022-07-26T08:00:56.692Z,101549.34
2022-07-26T08:06:18.588Z,101554.34
2022-07-26T08:11:41.747Z,101561.03
2022-07-26T08:17:03.721Z,101561.56
2022-07-26T08:22:25.426Z,101556.84
2022-07-26T08:28:02.560Z,101558.78
2022-07-26T08:33:24.803Z,101564.38
2022-07-26T08:38:47.807Z,101575.31
2022-07-26T08:44:11.468Z,101566.06
2022-07-26T08:49:33.254Z,101577.25
2022-07-26T08:54:55.078Z,101587.31
2022-07-26T09:00:26.039Z,101581.72
2022-07-26T09:05:47.782Z,101583.13
2022-07-26T09:11:24.479Z,101588.44
2022-07-26T09:17:00.105Z,101597.66
2022-07-26T09:22:21.809Z,101595.97
2022-07-26T09:27:43.491Z,101595.13
2022-07-26T09:33:07.545Z,101601.28
2022-07-26T09:38:43.525Z,101594.59
2022-07-26T09:44:19.371Z,101598.22
2022-07-26T09:49:42.685Z,101605.25
2022-07-26T09:55:06.485Z,101612.25
2022-07-26T10:00:28.422Z,101612.00
2022-07-26T10:05:50.140Z,101619.03
2022-07-26T10:11:12.786Z,101615.13
2022-07-26T10:16:34.623Z,101623.75
2022-07-26T10:22:35.697Z,101642.22
2022-07-26T10:27:58.374Z,101649.50
2022-07-26T10:33:25.484Z,101656.72
2022-07-26T10:38:58.829Z,101663.47
2022-07-26T10:44:22.961Z,101651.66
2022-07-26T10:49:55.827Z,101672.94
2022-07-26T10:55:17.600Z,101680.97
2022-07-26T11:00:39.332Z,101682.94
2022-07-26T11:06:09.965Z,101689.13
2022-07-26T11:11:33.597Z,101692.16
2022-07-26T11:16:55.319Z,101700.00
2022-07-26T11:22:17.348Z,101711.44
2022-07-26T11:27:58.133Z,101698.31
2022-07-26T11:33:20.243Z,101704.16
2022-07-26T11:38:49.995Z,101703.63
2022-07-26T11:44:19.229Z,101701.41
2022-07-26T11:50:00.262Z,101694.44
2022-07-26T11:55:30.680Z,101691.16
2022-07-26T12:00:52.424Z,101691.06
2022-07-26T12:06:17.385Z,101703.69
2022-07-26T12:11:41.930Z,101706.47
2022-07-26T12:17:14.001Z,101708.75
2022-07-26T12:22:35.724Z,101716.31
2022-07-26T12:27:57.704Z,101718.84
2022-07-26T12:33:19.482Z,101716.03
2022-07-26T12:38:42.413Z,101728.59
2022-07-26T12:44:05.810Z,101743.94
2022-07-26T12:49:27.622Z,101755.34
2022-07-26T12:54:51.489Z,101762.63
2022-07-26T13:00:15.100Z,101772.09
2022-07-26T13:05:36.847Z,101768.41
2022-07-26T13:11:00.165Z,101770.63
2022-07-26T13:16:22.331Z,101763.84
2022-07-26T13:21:47.869Z,101764.97
2022-07-26T13:27:12.324Z,101768.56
2022-07-26T13:32:34.126Z,101769.94
2022-07-26T13:37:55.841Z,101769.06
2022-07-26T13:43:17.603Z,101773.84
2022-07-26T13:48:52.487Z,101771.03
2022-07-26T13:54:23.207Z,101771.03
2022-07-26T13:59:44.918Z,101776.63
2022-07-26T14:05:06.890Z,101771.56
2022-07-26T14:10:28.612Z,101760.38
2022-07-26T14:15:50.350Z,101764.84
2022-07-26T14:21:12.401Z,101771.31
2022-07-26T14:26:34.256Z,101771.56
2022-07-26T14:31:56.248Z,101778.00
2022-07-26T14:37:42.453Z,101776.03
2022-07-26T14:42:59.748Z,101771.31
2022-07-26T14:48:37.796Z,101770.19
2022-07-26T14:54:03.305Z,101778.84
2022-07-26T14:59:25.047Z,101779.69
2022-07-26T15:04:46.884Z,101767.66
2022-07-26T15:10:11.002Z,101773.25
2022-07-26T15:15:33.551Z,101772.97
2022-07-26T15:20:55.283Z,101774.94
2022-07-26T15:26:17.016Z,101768.25
2022-07-26T15:31:38.791Z,101755.97
2022-07-26T15:37:01.315Z,101760.44
2022-07-26T15:42:23.339Z,101753.75
2022-07-26T15:47:57.455Z,101746.47
2022-07-26T15:53:23.102Z,101754.00
2022-07-26T15:58:45.033Z,101758.75
2022-07-26T16:04:07.268Z,101743.91
2022-07-26T16:09:29.127Z,101744.50
2022-07-26T16:14:50.868Z,101741.72
2022-07-26T16:20:12.673Z,101742.56
2022-07-26T16:25:34.499Z,101748.16
2022-07-26T16:30:56.243Z,101748.69
2022-07-26T16:36:18.097Z,101743.09
2022-07-26T16:41:39.803Z,101750.88
2022-07-26T16:47:02.229Z,101758.16
2022-07-26T16:52:24.056Z,101760.44
2022-07-26T16:57:45.774Z,101755.44
2022-07-26T17:03:07.484Z,101754.88
2022-07-26T17:08:29.535Z,101764.97
2022-07-26T17:13:51.357Z,101768.63
2022-07-26T17:19:14.455Z,101775.03
2022-07-26T17:24:36.272Z,101775.03
2022-07-26T17:29:59.850Z,101775.03
2022-07-26T17:35:23.620Z,101781.50
2022-07-26T17:40:45.376Z,101790.72
2022-07-26T17:46:08.963Z,101789.00
2022-07-26T17:51:30.728Z,101787.09
2022-07-26T17:56:54.581Z,101784.53
2022-07-26T18:02:17.339Z,101784.28
2022-07-26T18:07:40.425Z,101780.13
2022-07-26T18:13:02.168Z,101790.19
2022-07-26T18:18:24.297Z,101780.94
2022-07-26T18:24:06.640Z,101780.13
2022-07-26T18:29:28.211Z,101782.31
2022-07-26T18:34:52.037Z,101775.56
2022-07-26T18:40:14.430Z,101785.91
2022-07-26T18:45:36.378Z,101783.63
2022-07-26T18:50:58.111Z,101783.91
2022-07-26T18:56:20.218Z,101783.91
2022-07-26T19:01:41.998Z,101786.13
2022-07-26T19:07:03.792Z,101795.59
2022-07-26T19:12:26.882Z,101793.66
2022-07-26T19:17:48.648Z,101798.41
2022-07-26T19:23:10.683Z,101807.88
2022-07-26T19:28:32.505Z,101811.53
2022-07-26T19:33:54.217Z,101821.84
2022-07-26T19:39:15.891Z,101831.31
2022-07-26T19:44:37.608Z,101834.59
2022-07-26T19:49:59.373Z,101844.09
2022-07-26T19:55:21.172Z,101839.38
2022-07-26T20:00:42.909Z,101838.50
2022-07-26T20:06:04.693Z,101852.75
2022-07-26T20:11:28.306Z,101867.50
2022-07-26T20:16:55.783Z,101865.22
2022-07-26T20:22:18.200Z,101872.72
2022-07-26T20:27:40.147Z,101876.31
2022-07-26T20:33:01.865Z,101880.19
2022-07-26T20:38:23.657Z,101877.66
2022-07-26T20:43:45.376Z,101890.22
2022-07-26T20:49:08.391Z,101896.91
2022-07-26T20:54:31.556Z,101904.06
2022-07-26T20:59:53.256Z,101910.75
2022-07-26T21:05:14.962Z,101917.44
2022-07-26T21:10:37.150Z,101923.53
2022-07-26T21:15:58.899Z,101920.72
2022-07-26T21:21:21.765Z,101925.75
2022-07-26T21:26:44.768Z,101925.75
2022-07-26T21:32:06.797Z,101924.28
2022-07-26T21:37:28.589Z,101926.53
2022-07-26T21:42:50.363Z,101925.38
2022-07-26T21:48:12.207Z,101930.16
2022-07-26T21:53:33.921Z,101934.03
2022-07-26T21:58:55.631Z,101932.84
2022-07-26T22:04:18.012Z,101931.75
2022-07-26T22:09:39.787Z,101932.84
2022-07-26T22:15:01.995Z,101940.38
2022-07-26T22:20:23.739Z,101932.28
2022-07-26T22:25:46.276Z,101944.28
2022-07-26T22:31:08.017Z,101945.09
2022-07-26T22:36:29.835Z,101946.25
2022-07-26T22:42:13.773Z,101937.88
2022-07-26T22:47:33.199Z,101945.38
2022-07-26T22:52:55.644Z,101947.34
2022-07-26T22:58:17.402Z,101944.53
2022-07-26T23:03:39.187Z,101946.47
2022-07-26T23:09:03.144Z,101936.41
2022-07-26T23:14:25.264Z,101948.44
2022-07-26T23:19:46.939Z,101950.13
2022-07-26T23:25:09.210Z,101952.91
2022-07-26T23:30:31.137Z,101950.13
2022-07-26T23:35:52.932Z,101954.84
2022-07-26T23:41:14.714Z,101956.22
2022-07-26T23:46:36.497Z,101959.59
2022-07-26T23:51:58.280Z,101953.16
2022-07-26T23:57:20.044Z,101954.25
